Boiestown, Canada
Current Conditions -  °F | °C
As of 11:00 AM on Wednesday 22 Oct 2014 (Local Time) from CYFC Reporting Station
Broken Clouds Broken Clouds  
Wind Chill: 42°   Ceiling: 15000
Heat Index: 48°   Visibility: 9mi
Dew Point: 41°   Wind: 16mph
Humidity: 76%   Direction: 40°NE
Pressure: 30.34"   Gusts: 23mph
Location:  46.45°N, 66.4°W
Report Text: CYFC 221400Z AUTO 04014G20KT 9SM FEW085 BKN150 BKN180 09/05 A3034 RMK SLP276
Loading
Personal Weather Stations






























Interactive Weather Map
Tropical Storm Tracking
New forecast layout! Learn more

10-Day Weather Forecast

Advertisements
Track Severe Weather on mobile